Time;durP1;ratioP1;P1;durP2;ratioP2;P2;SDS_P1;SDS_P2;PMS_P1;PMS_P2;Temp;Humidity;BMP_temperature;BMP_pressure;BME280_temperature;BME280_humidity;BME280_pressure;Samples;Min_cycle;Max_cycle;Signal;HPM_P1;HPM_P2
2022/01/13 00:01:57;;;;;;;62.90;22.73;;;;;;;3.79;100.00;103719.44;5063493;28;20040;-73
2022/01/13 00:04:24;;;;;;;82.13;29.42;;;;;;;3.84;100.00;103716.66;5061599;28;20459;-71
2022/01/13 00:06:51;;;;;;;55.70;19.80;;;;;;;3.83;100.00;103734.22;5063130;28;20061;-72
2022/01/13 00:09:18;;;;;;;65.43;24.25;;;;;;;3.83;100.00;103726.00;5062238;28;20059;-72
2022/01/13 00:11:47;;;;;;;27.92;11.95;;;;;;;3.79;100.00;103733.97;5063341;28;20073;-71
2022/01/13 00:22:02;;;;;;;88.47;32.72;;;;;;;3.89;100.00;103739.41;5065368;28;20148;-73
2022/01/13 00:24:29;;;;;;;107.13;35.97;;;;;;;3.90;100.00;103734.72;5063240;28;20048;-74
2022/01/13 00:26:56;;;;;;;61.42;21.77;;;;;;;3.86;100.00;103744.63;5059374;28;20072;-73
2022/01/13 00:29:30;;;;;;;27.02;12.68;;;;;;;3.81;100.00;103737.22;5058768;28;20052;-71
2022/01/13 00:31:57;;;;;;;83.97;25.55;;;;;;;3.88;100.00;103731.47;5061958;28;20060;-71
2022/01/13 00:34:23;;;;;;;38.38;14.13;;;;;;;3.85;100.00;103721.88;5066279;28;20048;-71
2022/01/13 00:36:50;;;;;;;90.40;29.77;;;;;;;3.88;100.00;103736.94;5066326;28;20555;-74
2022/01/13 00:39:17;;;;;;;104.50;35.05;;;;;;;3.90;100.00;103726.50;5066632;28;20052;-72
2022/01/13 00:41:43;;;;;;;82.85;33.05;;;;;;;3.84;100.00;103731.19;5068571;28;20142;-71
2022/01/13 00:44:10;;;;;;;76.88;26.42;;;;;;;3.83;100.00;103740.53;5067746;28;20052;-72
2022/01/13 00:46:45;;;;;;;46.95;17.15;;;;;;;3.87;100.00;103735.28;5076546;28;20067;-74
2022/01/13 00:49:14;;;;;;;38.40;13.30;;;;;;;3.79;100.00;103738.63;5066992;28;20457;-73
2022/01/13 00:51:42;;;;;;;45.70;15.55;;;;;;;3.79;100.00;103735.88;5065165;28;20781;-73
2022/01/13 00:54:09;;;;;;;93.85;31.02;;;;;;;3.89;100.00;103739.41;5068728;28;20044;-71
2022/01/13 00:56:37;;;;;;;45.22;16.60;;;;;;;3.82;100.00;103729.84;5068986;28;20140;-72
2022/01/13 00:59:09;;;;;;;88.25;29.77;;;;;;;3.86;100.00;103734.50;5061910;28;20731;-73
2022/01/13 01:01:43;;;;;;;58.80;22.33;;;;;;;3.84;100.00;103739.41;5067600;28;20053;-72
2022/01/13 01:04:10;;;;;;;55.72;19.50;;;;;;;3.79;100.00;103739.44;5068956;28;20058;-72
2022/01/13 01:06:37;;;;;;;49.67;19.30;;;;;;;3.82;100.00;103743.53;5067973;28;20139;-72
2022/01/13 01:09:05;;;;;;;64.53;23.15;;;;;;;3.84;100.00;103741.31;5068782;28;20906;-72
2022/01/13 01:11:31;;;;;;;69.60;23.30;;;;;;;3.71;100.00;103750.16;5067212;28;20131;-72
2022/01/13 01:14:00;;;;;;;10.65;7.50;;;;;;;3.74;100.00;103742.19;5067816;28;20045;-72
2022/01/13 01:16:26;;;;;;;13.25;6.60;;;;;;;3.75;100.00;103738.34;5068513;28;20071;-73
2022/01/13 01:19:06;;;;;;;80.40;26.40;;;;;;;3.77;100.00;103743.53;5067131;28;20052;-72
2022/01/13 01:27:02;;;;;;;67.85;25.23;;;;;;;3.74;100.00;103742.19;5065534;28;20139;-73
2022/01/13 01:29:37;;;;;;;22.65;8.90;;;;;;;3.73;100.00;103743.28;5068322;28;20056;-72
2022/01/13 01:32:09;;;;;;;38.47;14.45;;;;;;;3.66;100.00;103745.50;5067941;28;20040;-70
2022/01/13 01:37:15;;;;;;;35.85;15.63;;;;;;;3.72;100.00;103752.63;5060478;28;20451;-71
2022/01/13 01:39:43;;;;;;;37.67;12.32;;;;;;;3.70;100.00;103743.84;5065959;28;20163;-72
2022/01/13 01:42:11;;;;;;;25.08;9.90;;;;;;;3.69;100.00;103750.44;5065785;28;20044;-72
2022/01/13 01:44:42;;;;;;;31.00;10.80;;;;;;;3.70;100.00;103754.81;5068422;28;20063;-71
2022/01/13 01:47:13;;;;;;;36.17;15.32;;;;;;;3.70;100.00;103751.22;5066634;28;20529;-75
2022/01/13 01:49:42;;;;;;;67.95;24.05;;;;;;;3.73;100.00;103753.41;5066772;28;20040;-71
2022/01/13 01:52:12;;;;;;;48.78;16.42;;;;;;;3.72;100.00;103754.53;5068230;28;20496;-72
2022/01/13 01:54:39;;;;;;;71.07;24.50;;;;;;;3.70;100.00;103749.31;5066984;28;20053;-74
2022/01/13 01:57:06;;;;;;;25.88;10.55;;;;;;;3.72;100.00;103765.47;5065336;28;20149;-76
2022/01/13 01:59:36;;;;;;;42.97;15.82;;;;;;;3.73;100.00;103764.38;5066262;28;20047;-71
2022/01/13 02:02:04;;;;;;;52.40;20.30;;;;;;;3.72;100.00;103765.47;5066009;28;20483;-73
2022/01/13 02:04:31;;;;;;;51.50;17.70;;;;;;;3.71;100.00;103763.84;5064234;28;20049;-72
2022/01/13 02:07:04;;;;;;;45.00;17.73;;;;;;;3.77;100.00;103768.19;5066038;28;20058;-73
2022/01/13 02:09:30;;;;;;;67.30;25.48;;;;;;;3.78;100.00;103756.16;5065863;28;20741;-71
2022/01/13 02:12:04;;;;;;;55.22;21.10;;;;;;;3.74;100.00;103752.34;5058730;28;20049;-72
2022/01/13 02:14:34;;;;;;;81.25;28.33;;;;;;;3.73;100.00;103754.25;5063690;28;20087;-72
2022/01/13 02:17:07;;;;;;;47.22;18.00;;;;;;;3.71;100.00;103753.69;5064054;28;20060;-71
2022/01/13 02:19:38;;;;;;;46.40;15.10;;;;;;;3.71;100.00;103753.69;5068247;28;20146;-75
2022/01/13 02:22:05;;;;;;;47.78;17.23;;;;;;;3.69;100.00;103752.34;5064230;28;20123;-71
2022/01/13 02:24:33;;;;;;;58.60;19.17;;;;;;;3.69;100.00;103753.16;5068843;28;20058;-72
2022/01/13 02:26:59;;;;;;;72.95;24.27;;;;;;;3.72;100.00;103751.78;5063769;28;20140;-72
2022/01/13 02:29:26;;;;;;;47.92;16.42;;;;;;;3.66;100.00;103747.41;5063779;28;20092;-71
2022/01/13 02:31:53;;;;;;;47.17;18.40;;;;;;;3.64;100.00;103742.22;5070499;28;20044;-72
2022/01/13 02:34:20;;;;;;;35.03;11.73;;;;;;;3.67;100.00;103746.31;5067509;28;20056;-72
2022/01/13 02:36:51;;;;;;;54.78;18.77;;;;;;;3.63;100.00;103746.06;5079308;28;20044;-73
2022/01/13 02:39:20;;;;;;;73.75;21.80;;;;;;;3.67;100.00;103747.13;5060975;28;20048;-71
2022/01/13 02:41:47;;;;;;;87.50;28.92;;;;;;;3.70;100.00;103737.53;5067504;28;20619;-71
2022/01/13 02:44:17;;;;;;;50.33;18.60;;;;;;;3.64;100.00;103741.41;5067315;28;20098;-72
2022/01/13 02:49:17;;;;;;;73.60;23.30;;;;;;;3.67;100.00;103736.19;5061232;28;20131;-71
2022/01/13 02:51:47;;;;;;;78.65;28.58;;;;;;;3.69;100.00;103738.66;5061455;28;20059;-72
2022/01/13 02:54:14;;;;;;;23.27;8.07;;;;;;;3.61;100.00;103748.25;5066328;28;20055;-74
2022/01/13 02:56:42;;;;;;;67.75;24.77;;;;;;;3.62;100.00;103746.34;5066281;28;20052;-73
2022/01/13 02:59:09;;;;;;;28.42;9.43;;;;;;;3.61;100.00;103745.50;5066693;28;20547;-72
2022/01/13 03:01:36;;;;;;;33.70;12.85;;;;;;;3.62;100.00;103741.69;5064356;28;20136;-72
2022/01/13 03:04:07;;;;;;;32.40;10.95;;;;;;;3.56;100.00;103731.84;5059207;28;20505;-71
2022/01/13 03:06:36;;;;;;;65.03;19.40;;;;;;;3.56;100.00;103731.00;5063191;28;20532;-71
2022/01/13 03:09:13;;;;;;;52.55;17.60;;;;;;;3.59;100.00;103730.44;5065838;28;20048;-71
2022/01/13 03:11:41;;;;;;;95.60;31.98;;;;;;;3.62;100.00;103717.03;5065545;28;20052;-73
2022/01/13 03:14:10;;;;;;;80.43;23.23;;;;;;;3.60;100.00;103719.22;5067185;28;20111;-74
2022/01/13 03:16:41;;;;;;;52.92;18.13;;;;;;;3.57;100.00;103714.31;5065537;28;20118;-70
2022/01/13 03:19:09;;;;;;;45.58;16.95;;;;;;;3.56;100.00;103720.06;5065564;28;20656;-70
2022/01/13 03:21:37;;;;;;;22.80;8.88;;;;;;;3.58;100.00;103729.63;5076484;28;20143;-70
2022/01/13 03:24:08;;;;;;;45.38;16.48;;;;;;;3.58;100.00;103715.94;5060840;28;20052;-71
2022/01/13 03:26:35;;;;;;;28.20;10.00;;;;;;;3.63;100.00;103726.06;5067585;28;20702;-73
2022/01/13 03:29:14;;;;;;;49.28;16.42;;;;;;;3.58;100.00;103709.66;5076797;28;20083;-71
2022/01/13 03:31:43;;;;;;;77.40;26.27;;;;;;;3.61;100.00;103720.84;5066904;28;20056;-73
2022/01/13 03:34:13;;;;;;;79.35;23.70;;;;;;;3.51;100.00;103726.34;5065827;28;20072;-70
2022/01/13 03:36:43;;;;;;;48.80;18.80;;;;;;;3.59;100.00;103725.81;5065663;28;20059;-72
2022/01/13 03:39:10;;;;;;;50.08;17.40;;;;;;;3.59;100.00;103733.19;5067013;28;20057;-71
2022/01/13 03:41:38;;;;;;;65.93;22.73;;;;;;;3.63;100.00;103723.31;5057353;28;20163;-73
2022/01/13 03:44:08;;;;;;;103.90;32.72;;;;;;;3.67;100.00;103727.97;5066178;28;20043;-70
2022/01/13 03:46:36;;;;;;;81.90;29.70;;;;;;;3.63;100.00;103735.09;5065799;28;20084;-73
2022/01/13 03:49:08;;;;;;;50.22;18.40;;;;;;;3.58;100.00;103726.09;5074786;28;20051;-71
2022/01/13 03:51:50;;;;;;;72.28;24.50;;;;;;;3.60;100.00;103729.34;5069177;28;20063;-73
2022/01/13 03:54:32;;;;;;;47.25;18.55;;;;;;;3.57;100.00;103729.91;5070814;28;20048;-71
2022/01/13 03:57:32;;;;;;;102.20;33.42;;;;;;;3.68;100.00;103732.34;5072396;28;20114;-73
2022/01/13 04:00:17;;;;;;;35.05;13.18;;;;;;;3.59;100.00;103725.81;5079124;28;20170;-72
2022/01/13 04:02:44;;;;;;;67.05;19.75;;;;;;;3.59;100.00;103722.25;5059309;28;20790;-75
2022/01/13 04:05:11;;;;;;;66.63;20.38;;;;;;;3.55;100.00;103715.69;5067606;28;20110;-70
2022/01/13 04:07:38;;;;;;;78.18;30.75;;;;;;;3.54;100.00;103714.84;5070901;28;20048;-72
2022/01/13 04:10:56;;;;;;;30.52;14.00;;;;;;;3.50;100.00;103702.00;5069220;28;20517;-72
2022/01/13 04:13:43;;;;;;;101.18;33.88;;;;;;;3.53;100.00;103694.06;5049190;28;20139;-73
2022/01/13 04:16:10;;;;;;;62.90;20.85;;;;;;;3.51;100.00;103696.25;5069938;28;20133;-74
2022/01/13 04:18:36;;;;;;;38.67;15.63;;;;;;;3.46;100.00;103687.22;5070281;28;20117;-72
2022/01/13 04:21:03;;;;;;;28.83;13.52;;;;;;;3.47;100.00;103692.41;5063511;28;20124;-72
2022/01/13 04:23:32;;;;;;;57.80;19.38;;;;;;;3.54;100.00;103698.44;5072205;28;20054;-74
2022/01/13 04:25:59;;;;;;;46.78;17.67;;;;;;;3.46;100.00;103696.28;5074100;28;20087;-71
2022/01/13 04:28:28;;;;;;;84.50;26.42;;;;;;;3.39;100.00;103701.22;5065305;28;20060;-72
2022/01/13 04:31:04;;;;;;;46.65;17.98;;;;;;;3.47;100.00;103708.84;5065008;28;20140;-72
2022/01/13 04:33:33;;;;;;;91.35;27.02;;;;;;;3.49;100.00;103706.66;5076449;28;20056;-71
2022/01/13 04:36:01;;;;;;;56.28;23.45;;;;;;;3.41;100.00;103712.69;5073542;28;20149;-73
2022/01/13 04:38:28;;;;;;;79.53;29.08;;;;;;;3.41;100.00;103704.47;5059447;28;20056;-72
2022/01/13 04:40:56;;;;;;;76.43;21.85;;;;;;;3.49;100.00;103698.44;5073320;28;20547;-71
2022/01/13 04:43:24;;;;;;;88.75;27.08;;;;;;;3.46;100.00;103690.78;5068368;28;20123;-73
2022/01/13 04:45:51;;;;;;;22.55;10.30;;;;;;;3.49;100.00;103689.41;5069344;28;20063;-70
2022/01/13 04:48:18;;;;;;;72.90;28.23;;;;;;;3.43;100.00;103680.41;5070017;28;20118;-72
2022/01/13 04:50:45;;;;;;;44.53;18.85;;;;;;;3.48;100.00;103677.63;5069338;28;20087;-72
2022/01/13 04:53:13;;;;;;;26.40;10.25;;;;;;;3.46;100.00;103674.38;5069687;28;20052;-73
2022/01/13 04:55:49;;;;;;;81.82;30.83;;;;;;;3.48;100.00;103669.41;5069417;28;20593;-71
2022/01/13 04:58:16;;;;;;;48.70;18.77;;;;;;;3.49;100.00;103684.75;5063761;28;20059;-72
2022/01/13 05:00:43;;;;;;;53.30;19.77;;;;;;;3.39;100.00;103679.31;5068430;28;20139;-71
2022/01/13 05:03:10;;;;;;;48.55;18.25;;;;;;;3.43;100.00;103685.03;5067530;28;20067;-71
2022/01/13 05:05:36;;;;;;;75.35;26.45;;;;;;;3.42;100.00;103684.25;5070408;28;20048;-73
2022/01/13 05:08:03;;;;;;;84.15;30.85;;;;;;;3.30;100.00;103680.97;5061779;28;20075;-74
2022/01/13 05:10:30;;;;;;;75.05;24.77;;;;;;;3.32;100.00;103684.25;5070216;28;20135;-74
2022/01/13 05:12:57;;;;;;;84.82;31.65;;;;;;;3.28;100.00;103694.13;5065354;28;20082;-73
2022/01/13 05:15:27;;;;;;;45.65;14.77;;;;;;;3.32;100.00;103689.75;5060663;28;20056;-71
2022/01/13 05:18:09;;;;;;;47.72;14.95;;;;;;;3.32;100.00;103692.47;5080264;28;20540;-71
2022/01/13 05:20:42;;;;;;;71.30;24.88;;;;;;;3.38;100.00;103690.53;5067623;28;20056;-72
2022/01/13 05:23:11;;;;;;;60.53;22.27;;;;;;;3.31;100.00;103688.06;5056271;28;20132;-73
2022/01/13 05:25:39;;;;;;;56.40;25.33;;;;;;;3.29;100.00;103690.28;5068690;28;20139;-72
2022/01/13 05:28:06;;;;;;;66.90;25.73;;;;;;;3.30;100.00;103675.50;5068019;28;20044;-72
2022/01/13 05:30:32;;;;;;;112.88;36.10;;;;;;;3.35;100.00;103677.41;5068128;28;20087;-72
2022/01/13 05:32:59;;;;;;;24.67;9.93;;;;;;;3.35;100.00;103680.16;5062761;28;20648;-72
2022/01/13 05:35:26;;;;;;;54.72;21.60;;;;;;;3.32;100.00;103678.78;5072424;28;20602;-73
2022/01/13 05:37:53;;;;;;;59.70;20.75;;;;;;;3.30;100.00;103680.97;5066542;28;20095;-73
2022/01/13 05:40:20;;;;;;;27.80;11.02;;;;;;;3.35;100.00;103670.03;5061818;28;20064;-73
2022/01/13 05:42:47;;;;;;;59.22;19.48;;;;;;;3.27;100.00;103667.84;5066355;28;20103;-71
2022/01/13 05:45:18;;;;;;;70.85;24.20;;;;;;;3.35;100.00;103659.06;5070559;28;20044;-71
2022/01/13 05:47:47;;;;;;;23.92;11.18;;;;;;;3.33;100.00;103661.25;5059817;28;20142;-71
2022/01/13 05:50:15;;;;;;;91.38;32.03;;;;;;;3.38;100.00;103658.53;5069456;28;20135;-70
2022/01/13 05:52:42;;;;;;;40.80;16.20;;;;;;;3.32;100.00;103665.09;5066673;28;20091;-73
2022/01/13 05:55:10;;;;;;;72.15;26.25;;;;;;;3.25;100.00;103661.84;5069207;28;20489;-71
2022/01/13 05:57:37;;;;;;;94.78;34.45;;;;;;;3.35;100.00;103674.66;5065900;28;20135;-73
2022/01/13 06:00:06;;;;;;;87.28;27.95;;;;;;;3.34;100.00;103676.56;5063242;28;20155;-71
2022/01/13 06:02:32;;;;;;;46.28;18.85;;;;;;;3.34;100.00;103678.50;5065793;28;20048;-72
2022/01/13 06:04:59;;;;;;;49.00;19.98;;;;;;;3.30;100.00;103674.69;5061064;28;20115;-72
2022/01/13 06:07:26;;;;;;;25.63;10.85;;;;;;;3.30;100.00;103683.72;5066563;28;20100;-71
2022/01/13 06:09:52;;;;;;;97.82;35.55;;;;;;;3.32;100.00;103677.97;5071569;28;20493;-71
2022/01/13 06:12:21;;;;;;;106.55;34.92;;;;;;;3.36;100.00;103679.88;5066220;28;20090;-73
2022/01/13 06:14:47;;;;;;;66.20;22.73;;;;;;;3.31;100.00;103682.59;5068040;28;20539;-71
2022/01/13 06:17:14;;;;;;;47.67;17.20;;;;;;;3.33;100.00;103674.94;5059102;28;20123;-72
2022/01/13 06:19:40;;;;;;;103.57;34.58;;;;;;;3.35;100.00;103678.25;5059809;28;20053;-73
2022/01/13 06:22:08;;;;;;;43.90;18.98;;;;;;;3.24;100.00;103676.59;5066140;28;20048;-72
2022/01/13 06:24:35;;;;;;;34.97;13.80;;;;;;;3.23;100.00;103672.22;5067929;28;20052;-71
2022/01/13 06:27:01;;;;;;;79.28;28.40;;;;;;;3.27;100.00;103669.78;5065958;28;20051;-73
2022/01/13 06:29:28;;;;;;;62.88;22.05;;;;;;;3.17;100.00;103667.84;5064741;28;20148;-70
2022/01/13 06:31:56;;;;;;;99.22;33.35;;;;;;;3.24;100.00;103665.66;5058265;28;20583;-72
2022/01/13 06:34:23;;;;;;;65.22;23.08;;;;;;;3.13;100.00;103663.22;5068371;28;20132;-71
2022/01/13 06:36:50;;;;;;;28.25;12.10;;;;;;;3.15;100.00;103663.75;5065081;28;20143;-73
2022/01/13 06:39:16;;;;;;;93.85;32.45;;;;;;;3.18;100.00;103664.03;5066731;28;20068;-71
2022/01/13 06:41:43;;;;;;;91.20;33.83;;;;;;;3.21;100.00;103662.66;5056177;28;20048;-70
2022/01/13 06:44:10;;;;;;;71.80;22.92;;;;;;;3.12;100.00;103659.66;5068709;28;20079;-78
2022/01/13 06:46:36;;;;;;;29.45;10.10;;;;;;;3.15;100.00;103661.03;5064061;28;20117;-71
2022/01/13 06:49:03;;;;;;;69.38;27.50;;;;;;;3.07;100.00;103667.06;5063542;28;20090;-71
2022/01/13 06:51:32;;;;;;;42.88;15.98;;;;;;;3.09;100.00;103656.66;5065280;28;20052;-72
2022/01/13 06:53:59;;;;;;;76.63;30.02;;;;;;;3.05;100.00;103661.88;5065524;28;20072;-72
2022/01/13 06:56:26;;;;;;;93.75;35.25;;;;;;;3.13;100.00;103672.25;5065858;28;20096;-72
2022/01/13 06:58:54;;;;;;;40.20;18.38;;;;;;;3.09;100.00;103667.59;5064083;28;20056;-71
2022/01/13 07:01:23;;;;;;;70.22;25.17;;;;;;;3.09;100.00;103665.69;5067171;28;20080;-72
2022/01/13 07:03:50;;;;;;;72.43;28.05;;;;;;;3.08;100.00;103672.25;5066947;28;20416;-72
2022/01/13 07:06:17;;;;;;;50.50;23.10;;;;;;;3.03;100.00;103669.53;5056443;28;20167;-71
2022/01/13 07:08:43;;;;;;;71.60;26.35;;;;;;;3.03;100.00;103674.19;5064001;28;20139;-71
2022/01/13 07:11:10;;;;;;;63.80;26.55;;;;;;;2.93;100.00;103675.00;5066926;28;20084;-73
2022/01/13 07:13:37;;;;;;;76.13;30.42;;;;;;;2.85;100.00;103670.09;5065655;28;20444;-72
2022/01/13 07:16:04;;;;;;;18.40;9.55;;;;;;;2.97;100.00;103678.81;5067222;28;20044;-73
2022/01/13 07:18:38;;;;;;;34.05;15.95;;;;;;;2.93;100.00;103677.75;5065074;28;20044;-73
2022/01/13 07:21:12;;;;;;;98.63;32.75;;;;;;;2.96;100.00;103674.47;5061112;28;20044;-74
2022/01/13 07:23:39;;;;;;;74.60;27.05;;;;;;;2.94;100.00;103682.13;5061196;28;20051;-73
2022/01/13 07:26:05;;;;;;;118.57;36.88;;;;;;;3.00;100.00;103689.22;5069536;28;20048;-75
2022/01/13 07:28:32;;;;;;;82.03;29.25;;;;;;;2.86;100.00;103701.81;5067957;28;20056;-72
2022/01/13 07:30:59;;;;;;;68.85;25.00;;;;;;;2.89;100.00;103700.44;5064277;28;20110;-74
2022/01/13 07:33:26;;;;;;;47.20;18.85;;;;;;;2.86;100.00;103704.53;5071984;28;20065;-71
2022/01/13 07:35:52;;;;;;;109.95;39.95;;;;;;;2.72;100.00;103703.44;5069349;28;20118;-70
2022/01/13 07:38:19;;;;;;;115.35;37.10;;;;;;;2.89;100.00;103698.53;5065131;28;20447;-71
2022/01/13 07:40:45;;;;;;;64.05;22.63;;;;;;;2.76;100.00;103695.53;5068084;28;20135;-70
2022/01/13 07:43:13;;;;;;;35.80;14.07;;;;;;;2.78;100.00;103707.84;5078723;28;20496;-75
2022/01/13 07:45:39;;;;;;;62.30;21.70;;;;;;;2.76;100.00;103707.28;5074506;28;20136;-74
2022/01/13 07:48:06;;;;;;;45.67;18.83;;;;;;;2.77;100.00;103692.53;5065086;28;20118;-72
2022/01/13 07:50:34;;;;;;;58.33;21.48;;;;;;;2.75;100.00;103694.72;5065677;28;20811;-74
2022/01/13 07:53:00;;;;;;;30.75;10.80;;;;;;;2.80;100.00;103705.63;5073995;28;20048;-75
2022/01/13 07:55:27;;;;;;;88.15;30.55;;;;;;;2.82;100.00;103703.47;5072963;28;20083;-74
2022/01/13 07:57:54;;;;;;;98.57;35.35;;;;;;;2.71;100.00;103702.63;5070631;28;20079;-74
2022/01/13 08:00:20;;;;;;;55.10;20.77;;;;;;;2.77;100.00;103708.94;5083613;28;20070;-73
2022/01/13 08:02:49;;;;;;;83.60;30.02;;;;;;;2.76;100.00;103703.75;5067032;28;20072;-74
2022/01/13 08:05:16;;;;;;;56.80;22.13;;;;;;;2.74;100.00;103693.88;5089558;28;20064;-74
2022/01/13 08:07:44;;;;;;;63.88;23.38;;;;;;;2.76;100.00;103703.75;5075921;28;20052;-73
2022/01/13 08:10:11;;;;;;;35.40;16.27;;;;;;;2.77;100.00;103699.91;5068722;28;20115;-75
2022/01/13 08:12:39;;;;;;;65.28;21.30;;;;;;;2.73;100.00;103707.81;5072897;28;20084;-72
2022/01/13 08:15:08;;;;;;;156.35;49.58;;;;;;;2.79;100.00;103706.72;5072167;28;20175;-74
2022/01/13 08:20:20;;;;;;;44.75;18.17;;;;;;;2.77;100.00;103708.94;5070732;28;20075;-75
2022/01/13 08:22:46;;;;;;;88.80;30.42;;;;;;;2.67;100.00;103706.19;5074218;28;20052;-75
2022/01/13 08:25:15;;;;;;;33.38;16.33;;;;;;;2.75;100.00;103713.84;5066877;28;20071;-73
2022/01/13 08:27:41;;;;;;;40.05;14.48;;;;;;;2.76;100.00;103712.75;5069909;28;20060;-74
2022/01/13 08:30:08;;;;;;;42.17;17.90;;;;;;;2.80;100.00;103713.03;5072542;28;20135;-74
2022/01/13 08:32:35;;;;;;;83.25;31.52;;;;;;;2.76;100.00;103723.69;5057129;28;20140;-73
2022/01/13 08:35:03;;;;;;;78.00;26.17;;;;;;;2.77;100.00;103717.16;5076847;28;20077;-74
2022/01/13 08:37:32;;;;;;;130.35;38.25;;;;;;;2.91;100.00;103731.91;5071955;28;20769;-74
2022/01/13 08:40:00;;;;;;;123.53;36.70;;;;;;;2.91;100.00;103728.34;5071431;28;20087;-74
2022/01/13 08:42:27;;;;;;;76.47;25.38;;;;;;;2.87;100.00;103725.31;5072440;28;20052;-74
2022/01/13 08:44:54;;;;;;;77.43;27.30;;;;;;;2.85;100.00;103726.69;5071466;28;20048;-74
2022/01/13 08:47:20;;;;;;;34.13;14.10;;;;;;;2.87;100.00;103733.53;5071907;28;20076;-75
2022/01/13 08:49:47;;;;;;;102.50;34.90;;;;;;;2.80;100.00;103722.03;5072500;28;20056;-73
2022/01/13 08:52:14;;;;;;;33.38;12.20;;;;;;;2.84;100.00;103720.44;5071063;28;20060;-73
2022/01/13 08:54:45;;;;;;;53.05;17.75;;;;;;;2.87;100.00;103725.31;5062126;28;20132;-77
2022/01/13 08:57:13;;;;;;;51.30;18.15;;;;;;;2.86;100.00;103729.16;5080125;28;20048;-73
2022/01/13 08:59:40;;;;;;;61.30;22.42;;;;;;;2.93;100.00;103729.72;5068359;28;20082;-74
2022/01/13 09:02:06;;;;;;;50.22;18.20;;;;;;;2.84;100.00;103725.91;5058684;28;20493;-72
2022/01/13 09:04:33;;;;;;;97.55;29.67;;;;;;;2.83;100.00;103717.97;5071683;28;20041;-74
2022/01/13 09:07:00;;;;;;;47.55;18.48;;;;;;;2.90;100.00;103743.13;5084988;28;20486;-75
2022/01/13 09:09:26;;;;;;;48.03;18.73;;;;;;;2.88;100.00;103743.41;5071507;28;20088;-73
2022/01/13 09:11:53;;;;;;;111.32;35.13;;;;;;;2.92;100.00;103739.00;5071549;28;20047;-73
2022/01/13 09:14:25;;;;;;;67.03;23.63;;;;;;;2.95;100.00;103754.06;5068707;28;20068;-73
2022/01/13 09:16:52;;;;;;;72.22;25.80;;;;;;;2.93;100.00;103757.06;5066383;28;20056;-73
2022/01/13 09:19:19;;;;;;;39.05;15.55;;;;;;;3.00;100.00;103760.34;5074652;28;20067;-76
2022/01/13 09:21:48;;;;;;;63.85;20.70;;;;;;;3.03;100.00;103764.47;5065563;28;20060;-74
2022/01/13 09:24:21;;;;;;;61.78;19.52;;;;;;;2.96;100.00;103756.53;5070455;28;20449;-73
2022/01/13 09:26:48;;;;;;;86.82;29.48;;;;;;;3.06;100.00;103759.25;5068397;28;20124;-73
2022/01/13 09:29:15;;;;;;;117.32;38.55;;;;;;;3.10;100.00;103754.06;5080161;28;20080;-74
2022/01/13 09:31:44;;;;;;;127.07;38.38;;;;;;;3.18;100.00;103765.28;5068996;28;20079;-74
2022/01/13 09:34:11;;;;;;;80.10;25.10;;;;;;;3.17;100.00;103755.41;5069752;28;20076;-73
2022/01/13 09:36:38;;;;;;;121.57;38.47;;;;;;;3.25;100.00;103760.38;5063885;28;20505;-72
2022/01/13 09:39:07;;;;;;;79.45;29.27;;;;;;;3.25;100.00;103763.09;5056137;28;20132;-74
2022/01/13 09:41:35;;;;;;;115.25;35.50;;;;;;;3.21;100.00;103752.97;5069034;28;20048;-75
2022/01/13 09:44:04;;;;;;;49.35;19.13;;;;;;;3.18;100.00;103765.28;5070191;28;20081;-74
2022/01/13 09:46:33;;;;;;;101.35;36.03;;;;;;;3.23;100.00;103762.53;5070355;28;20155;-74
2022/01/13 09:49:03;;;;;;;33.65;14.60;;;;;;;3.07;100.00;103754.63;5074384;28;20060;-73
2022/01/13 09:51:32;;;;;;;52.08;17.55;;;;;;;3.16;100.00;103756.53;5068810;28;20578;-74
2022/01/13 09:53:59;;;;;;;70.38;26.13;;;;;;;3.07;100.00;103752.69;5068397;28;20533;-74
2022/01/13 09:56:26;;;;;;;66.55;27.67;;;;;;;3.01;100.00;103750.22;5061261;28;20091;-73
2022/01/13 09:58:52;;;;;;;82.35;28.77;;;;;;;3.02;100.00;103762.81;5064945;28;20132;-73
2022/01/13 10:01:19;;;;;;;80.75;34.33;;;;;;;2.99;100.00;103750.50;5066940;28;20483;-76
2022/01/13 10:03:46;;;;;;;49.95;19.60;;;;;;;3.01;100.00;103761.19;5066402;28;20064;-74
2022/01/13 10:06:15;;;;;;;74.38;28.48;;;;;;;3.09;100.00;103758.72;5067992;28;20083;-73
2022/01/13 10:08:46;;;;;;;79.07;26.48;;;;;;;3.13;100.00;103768.00;5070763;28;20147;-73
2022/01/13 10:11:34;;;;;;;33.85;16.20;;;;;;;3.13;100.00;103767.22;5069155;28;20102;-74
2022/01/13 10:16:56;;;;;;;41.38;14.65;;;;;;;3.20;100.00;103768.56;5069816;28;20147;-75
2022/01/13 10:19:25;;;;;;;129.70;42.45;;;;;;;3.27;100.00;103769.09;5071016;28;20068;-74
2022/01/13 10:22:04;;;;;;;116.47;41.95;;;;;;;3.32;100.00;103780.06;5070881;28;20136;-75
2022/01/13 10:24:33;;;;;;;121.38;40.00;;;;;;;3.36;100.00;103772.09;5069005;28;20071;-74
2022/01/13 10:27:12;;;;;;;155.45;51.17;;;;;;;3.39;100.00;103771.56;5070112;28;20060;-74
2022/01/13 10:29:45;;;;;;;150.32;47.78;;;;;;;3.43;100.00;103768.00;5062097;28;20044;-75
2022/01/13 10:32:18;;;;;;;34.55;14.93;;;;;;;3.42;100.00;103765.53;5070760;28;20063;-75
2022/01/13 10:34:48;;;;;;;136.93;48.53;;;;;;;3.47;100.00;103752.66;5069333;28;20447;-71
2022/01/13 10:37:20;;;;;;;112.30;36.85;;;;;;;3.50;100.00;103756.75;5068167;28;20053;-75
2022/01/13 10:39:52;;;;;;;139.52;45.58;;;;;;;3.55;100.00;103751.28;5085666;28;20090;-76
2022/01/13 10:45:10;;;;;;;52.55;22.38;;;;;;;3.57;100.00;103749.91;5067006;28;20064;-73
2022/01/13 10:47:42;;;;;;;117.57;35.92;;;;;;;3.60;100.00;103746.59;5070435;28;20328;-76
2022/01/13 10:50:11;;;;;;;134.68;41.88;;;;;;;3.70;100.00;103741.09;5069863;28;20070;-76
2022/01/13 10:52:39;;;;;;;75.75;25.33;;;;;;;3.66;100.00;103745.50;5069690;28;20085;-74
2022/01/13 10:55:09;;;;;;;45.05;19.20;;;;;;;3.62;100.00;103747.16;5081301;28;20058;-76
2022/01/13 10:57:57;;;;;;;51.83;21.73;;;;;;;3.64;100.00;103746.88;5072541;28;20044;-75
2022/01/13 11:00:25;;;;;;;109.32;35.28;;;;;;;3.66;100.00;103737.28;5067606;28;20048;-74
2022/01/13 11:03:04;;;;;;;39.22;13.20;;;;;;;3.59;100.00;103742.25;5073045;28;20469;-74
2022/01/13 11:05:34;;;;;;;91.55;31.00;;;;;;;3.61;100.00;103734.53;5067827;28;20076;-75
2022/01/13 11:08:03;;;;;;;53.53;19.30;;;;;;;3.56;100.00;103740.06;5076921;28;20564;-73
2022/01/13 11:10:31;;;;;;;53.88;19.63;;;;;;;3.52;100.00;103741.72;5069810;28;20087;-76
2022/01/13 11:13:01;;;;;;;77.00;26.05;;;;;;;3.47;100.00;103729.94;5065031;28;20047;-75
2022/01/13 11:15:28;;;;;;;74.97;23.88;;;;;;;3.48;100.00;103737.84;5070675;28;20176;-74
2022/01/13 11:17:57;;;;;;;63.40;21.90;;;;;;;3.51;100.00;103726.34;5055925;28;20436;-73
2022/01/13 11:20:25;;;;;;;95.03;29.35;;;;;;;3.61;100.00;103720.06;5071992;28;20110;-74
2022/01/13 11:22:54;;;;;;;109.88;32.13;;;;;;;3.57;100.00;103708.81;5055997;28;20137;-73
2022/01/13 11:25:24;;;;;;;122.95;38.90;;;;;;;3.63;100.00;103706.88;5059724;28;20048;-73
2022/01/13 11:27:52;;;;;;;112.65;37.42;;;;;;;3.64;100.00;103698.41;5051834;28;20740;-75
2022/01/13 11:30:25;;;;;;;75.68;28.20;;;;;;;3.67;100.00;103707.97;5055281;28;20052;-75
2022/01/13 11:32:51;;;;;;;55.25;20.60;;;;;;;3.53;100.00;103696.78;5074917;28;20121;-76
2022/01/13 11:35:22;;;;;;;83.93;31.85;;;;;;;3.52;100.00;103700.63;5054544;28;20044;-76
2022/01/13 11:37:50;;;;;;;82.72;33.05;;;;;;;3.45;100.00;103683.69;5052122;28;20139;-75
2022/01/13 11:40:26;;;;;;;77.40;27.42;;;;;;;3.50;100.00;103688.31;5051909;28;20052;-74
2022/01/13 11:42:58;;;;;;;26.58;12.70;;;;;;;3.58;100.00;103687.75;5051891;28;20052;-76
2022/01/13 11:45:27;;;;;;;75.72;30.20;;;;;;;3.51;100.00;103693.50;5054724;28;20938;-74